Time;durP1;ratioP1;P1;durP2;ratioP2;P2;SDS_P1;SDS_P2;PMS_P1;PMS_P2;Temp;Humidity;BMP_temperature;BMP_pressure;BME280_temperature;BME280_humidity;BME280_pressure;Samples;Min_cycle;Max_cycle;Signal;HPM_P1;HPM_P2
2022/12/18 00:00:26;;;;;;;;;;;;;;;;;;5047183;28;5163;-63
2022/12/18 00:02:52;;;;;;;;;;;;;;;;;;5064544;28;4393;-61
2022/12/18 00:05:17;;;;;;;;;;;;;;;;;;5058185;28;4699;-62
2022/12/18 00:07:42;;;;;;;;;;;;;;;;;;5057447;28;4992;-63
2022/12/18 00:10:08;;;;;;;;;;;;;;;;;;5066117;28;4503;-60
2022/12/18 00:12:33;;;;;;;;;;;;;;;;;;5066416;28;4883;-61
2022/12/18 00:14:58;;;;;;;;;;;;;;;;;;5063168;28;1910;-60
2022/12/18 00:17:23;;;;;;;;;;;;;;;;;;5066428;28;5025;-61
2022/12/18 00:19:48;;;;;;;;;;;;;;;;;;5063114;28;5028;-60
2022/12/18 00:22:14;;;;;;;;;;;;;;;;;;5057704;28;5069;-58
2022/12/18 00:24:39;;;;;;;;;;;;;;;;;;5064261;28;5206;-60
2022/12/18 00:27:04;;;;;;;;;;;;;;;;;;5058908;28;3548;-59
2022/12/18 00:29:29;;;;;;;;;;;;;;;;;;5055935;28;4357;-61
2022/12/18 00:31:55;;;;;;;;;;;;;;;;;;5054085;28;5366;-60
2022/12/18 00:34:20;;;;;;;;;;;;;;;;;;5055577;28;4560;-60
2022/12/18 00:36:46;;;;;;;;;;;;;;;;;;5065673;28;5124;-60
2022/12/18 00:39:12;;;;;;;;;;;;;;;;;;5056807;28;4498;-60
2022/12/18 00:44:21;;;;;;;;;;;;;;;;;;5062189;28;4799;-60
2022/12/18 00:46:46;;;;;;;;;;;;;;;;;;5066942;28;5033;-61
2022/12/18 00:49:12;;;;;;;;;;;;;;;;;;5065051;28;4553;-61
2022/12/18 00:51:37;;;;;;;;;;;;;;;;;;5059405;28;4728;-61
2022/12/18 00:54:02;;;;;;;;;;;;;;;;;;5064280;28;3373;-61
2022/12/18 00:56:27;;;;;;;;;;;;;;;;;;5058751;28;4385;-60
2022/12/18 00:58:53;;;;;;;;;;;;;;;;;;5066092;28;5068;-60
2022/12/18 01:01:18;;;;;;;;;;;;;;;;;;5064081;28;5106;-60
2022/12/18 01:03:45;;;;;;;;;;;;;;;;;;5064040;28;5101;-61
2022/12/18 01:06:11;;;;;;;;;;;;;;;;;;5065677;28;4518;-62
2022/12/18 01:08:36;;;;;;;;;;;;;;;;;;5063571;28;3532;-63
2022/12/18 01:11:06;;;;;;;;;;;;;;;;;;5059498;28;4463;-63
2022/12/18 01:13:32;;;;;;;;;;;;;;;;;;5066623;28;4915;-64
2022/12/18 01:15:57;;;;;;;;;;;;;;;;;;5047086;28;5116;-63
2022/12/18 01:18:22;;;;;;;;;;;;;;;;;;5058984;28;5088;-63
2022/12/18 01:20:47;;;;;;;;;;;;;;;;;;5064205;28;3608;-62
2022/12/18 01:23:13;;;;;;;;;;;;;;;;;;5064475;28;5217;-62
2022/12/18 01:25:38;;;;;;;;;;;;;;;;;;5063126;28;5103;-62
2022/12/18 01:28:03;;;;;;;;;;;;;;;;;;5066517;28;5092;-59
2022/12/18 01:30:28;;;;;;;;;;;;;;;;;;5064219;28;4885;-61
2022/12/18 01:32:54;;;;;;;;;;;;;;;;;;5066218;28;1150;-61
2022/12/18 01:35:19;;;;;;;;;;;;;;;;;;5062037;28;5009;-61
2022/12/18 01:37:44;;;;;;;;;;;;;;;;;;5056381;28;5565;-59
2022/12/18 01:40:10;;;;;;;;;;;;;;;;;;5059527;28;4616;-62
2022/12/18 01:42:35;;;;;;;;;;;;;;;;;;5061953;28;5040;-62
2022/12/18 01:45:03;;;;;;;;;;;;;;;;;;5066291;28;1116;-61
2022/12/18 01:47:42;;;;;;;;;;;;;;;;;;5064540;28;4987;-62
2022/12/18 01:50:11;;;;;;;;;;;;;;;;;;5062786;28;4628;-63
2022/12/18 01:52:41;;;;;;;;;;;;;;;;;;5060893;28;4976;-62
2022/12/18 01:55:06;;;;;;;;;;;;;;;;;;5064341;28;5237;-62
2022/12/18 01:57:31;;;;;;;;;;;;;;;;;;5068252;28;4515;-59
2022/12/18 01:59:59;;;;;;;;;;;;;;;;;;5049448;28;3322;-63
2022/12/18 02:02:24;;;;;;;;;;;;;;;;;;5056789;28;4959;-59
2022/12/18 02:04:49;;;;;;;;;;;;;;;;;;5051366;28;5074;-61
2022/12/18 02:07:17;;;;;;;;;;;;;;;;;;5051572;28;4900;-62
2022/12/18 02:09:46;;;;;;;;;;;;;;;;;;5043768;28;5096;-60
2022/12/18 02:12:11;;;;;;;;;;;;;;;;;;5058811;28;4851;-60
2022/12/18 02:14:55;;;;;;;;;;;;;;;;;;5066758;28;4195;-62
2022/12/18 02:17:21;;;;;;;;;;;;;;;;;;5070927;28;4894;-62
2022/12/18 02:20:02;;;;;;;;;;;;;;;;;;5069891;28;5056;-60
2022/12/18 02:22:33;;;;;;;;;;;;;;;;;;5055963;28;4884;-62
2022/12/18 02:25:17;;;;;;;;;;;;;;;;;;5063368;28;4941;-60
2022/12/18 02:27:44;;;;;;;;;;;;;;;;;;5064020;28;5129;-61
2022/12/18 02:30:09;;;;;;;;;;;;;;;;;;5051063;28;3664;-62
2022/12/18 02:32:35;;;;;;;;;;;;;;;;;;5052326;28;4887;-60
2022/12/18 02:35:01;;;;;;;;;;;;;;;;;;5047939;28;4542;-61
2022/12/18 02:37:26;;;;;;;;;;;;;;;;;;5041040;28;5504;-61
2022/12/18 02:39:52;;;;;;;;;;;;;;;;;;5052262;28;5124;-63
2022/12/18 02:42:17;;;;;;;;;;;;;;;;;;5058512;28;5065;-62
2022/12/18 02:44:44;;;;;;;;;;;;;;;;;;5062601;28;1191;-62
2022/12/18 02:47:10;;;;;;;;;;;;;;;;;;5072141;28;5270;-60
2022/12/18 02:49:57;;;;;;;;;;;;;;;;;;5066812;28;4674;-61
2022/12/18 02:52:23;;;;;;;;;;;;;;;;;;5052046;28;4766;-63
2022/12/18 02:54:48;;;;;;;;;;;;;;;;;;5061496;28;4504;-59
2022/12/18 02:57:19;;;;;;;;;;;;;;;;;;5068069;28;5102;-61
2022/12/18 02:59:50;;;;;;;;;;;;;;;;;;5052946;28;3556;-61
2022/12/18 03:02:22;;;;;;;;;;;;;;;;;;5055528;28;4982;-61
2022/12/18 03:05:06;;;;;;;;;;;;;;;;;;5063199;28;5054;-61
2022/12/18 03:07:37;;;;;;;;;;;;;;;;;;5072440;28;5191;-61
2022/12/18 03:10:03;;;;;;;;;;;;;;;;;;5050163;28;5255;-61
2022/12/18 03:12:30;;;;;;;;;;;;;;;;;;5064015;28;5138;-62
2022/12/18 03:14:57;;;;;;;;;;;;;;;;;;5035384;28;3492;-62
2022/12/18 03:17:23;;;;;;;;;;;;;;;;;;5071911;28;4975;-61
2022/12/18 03:19:48;;;;;;;;;;;;;;;;;;5028972;28;5227;-60
2022/12/18 03:22:13;;;;;;;;;;;;;;;;;;5066317;28;5042;-63
2022/12/18 03:24:39;;;;;;;;;;;;;;;;;;5036667;28;5266;-62
2022/12/18 03:27:05;;;;;;;;;;;;;;;;;;5055973;28;3708;-61
2022/12/18 03:29:35;;;;;;;;;;;;;;;;;;5057073;28;5087;-61
2022/12/18 03:32:08;;;;;;;;;;;;;;;;;;5070678;28;5066;-62
2022/12/18 03:34:34;;;;;;;;;;;;;;;;;;5043491;28;5161;-63
2022/12/18 03:37:02;;;;;;;;;;;;;;;;;;5038279;28;5243;-62
2022/12/18 03:39:27;;;;;;;;;;;;;;;;;;5074815;28;5110;-62
2022/12/18 03:41:59;;;;;;;;;;;;;;;;;;5060033;28;3503;-62
2022/12/18 03:44:28;;;;;;;;;;;;;;;;;;5072327;28;4908;-62
2022/12/18 03:46:56;;;;;;;;;;;;;;;;;;5055717;28;4879;-62
2022/12/18 03:49:24;;;;;;;;;;;;;;;;;;5070277;28;5064;-61
2022/12/18 03:51:53;;;;;;;;;;;;;;;;;;5071224;28;5009;-60
2022/12/18 03:54:18;;;;;;;;;;;;;;;;;;5057480;28;5048;-61
2022/12/18 03:56:45;;;;;;;;;;;;;;;;;;5053771;28;3687;-62
2022/12/18 03:59:11;;;;;;;;;;;;;;;;;;5060831;28;4443;-62
2022/12/18 04:01:40;;;;;;;;;;;;;;;;;;5063919;28;5251;-59
2022/12/18 04:04:05;;;;;;;;;;;;;;;;;;5056541;28;5362;-62
2022/12/18 04:06:30;;;;;;;;;;;;;;;;;;5060215;28;4679;-61
2022/12/18 04:08:56;;;;;;;;;;;;;;;;;;5064297;28;3500;-62
2022/12/18 04:11:21;;;;;;;;;;;;;;;;;;5063029;28;5008;-61
2022/12/18 04:13:47;;;;;;;;;;;;;;;;;;5064159;28;4944;-62
2022/12/18 04:16:12;;;;;;;;;;;;;;;;;;5053987;28;5048;-62
2022/12/18 04:18:37;;;;;;;;;;;;;;;;;;5055774;28;5096;-63
2022/12/18 04:21:02;;;;;;;;;;;;;;;;;;5056270;28;3604;-62
2022/12/18 04:23:28;;;;;;;;;;;;;;;;;;5059261;28;4571;-62
2022/12/18 04:25:53;;;;;;;;;;;;;;;;;;5060901;28;5063;-62
2022/12/18 04:28:18;;;;;;;;;;;;;;;;;;5061144;28;4434;-61
2022/12/18 04:30:44;;;;;;;;;;;;;;;;;;5057850;28;5132;-61
2022/12/18 04:33:10;;;;;;;;;;;;;;;;;;5060444;28;3510;-62
2022/12/18 04:35:35;;;;;;;;;;;;;;;;;;5058472;28;6087;-61
2022/12/18 04:38:00;;;;;;;;;;;;;;;;;;5058348;28;5037;-62
2022/12/18 04:40:25;;;;;;;;;;;;;;;;;;5060054;28;4676;-62
2022/12/18 04:42:51;;;;;;;;;;;;;;;;;;5055460;28;5086;-61
2022/12/18 04:45:16;;;;;;;;;;;;;;;;;;5051574;28;5291;-62
2022/12/18 04:47:41;;;;;;;;;;;;;;;;;;5054903;28;3564;-62
2022/12/18 04:50:07;;;;;;;;;;;;;;;;;;5056864;28;5150;-62
2022/12/18 04:52:32;;;;;;;;;;;;;;;;;;5059304;28;5031;-61
2022/12/18 04:54:57;;;;;;;;;;;;;;;;;;5059400;28;4541;-62
2022/12/18 04:57:22;;;;;;;;;;;;;;;;;;5059511;28;5208;-59
2022/12/18 04:59:48;;;;;;;;;;;;;;;;;;5059234;28;3469;-62
2022/12/18 05:02:13;;;;;;;;;;;;;;;;;;5060076;28;4500;-62
2022/12/18 05:04:38;;;;;;;;;;;;;;;;;;5062669;28;5070;-62
2022/12/18 05:07:03;;;;;;;;;;;;;;;;;;5063647;28;4960;-61
2022/12/18 05:09:29;;;;;;;;;;;;;;;;;;5056417;28;5090;-59
2022/12/18 05:11:54;;;;;;;;;;;;;;;;;;5061263;28;3508;-61
2022/12/18 05:14:19;;;;;;;;;;;;;;;;;;5063265;28;4860;-61
2022/12/18 05:16:44;;;;;;;;;;;;;;;;;;5055948;28;5079;-61
2022/12/18 05:19:10;;;;;;;;;;;;;;;;;;5054592;28;4526;-61
2022/12/18 05:21:35;;;;;;;;;;;;;;;;;;5059178;28;4941;-61
2022/12/18 05:24:00;;;;;;;;;;;;;;;;;;5067148;28;1510;-61
2022/12/18 05:26:25;;;;;;;;;;;;;;;;;;5063559;28;4982;-61
2022/12/18 05:28:51;;;;;;;;;;;;;;;;;;5064972;28;4751;-61
2022/12/18 05:31:16;;;;;;;;;;;;;;;;;;5060794;28;5647;-62
2022/12/18 05:33:41;;;;;;;;;;;;;;;;;;5060651;28;4562;-62
2022/12/18 05:36:07;;;;;;;;;;;;;;;;;;5064772;28;3449;-62
2022/12/18 05:38:32;;;;;;;;;;;;;;;;;;5062088;28;4985;-61
2022/12/18 05:40:58;;;;;;;;;;;;;;;;;;5062486;28;5016;-62
2022/12/18 05:43:23;;;;;;;;;;;;;;;;;;5064559;28;4546;-60
2022/12/18 05:45:48;;;;;;;;;;;;;;;;;;5061543;28;4488;-61
2022/12/18 05:48:14;;;;;;;;;;;;;;;;;;5065444;28;5043;-61
2022/12/18 05:50:39;;;;;;;;;;;;;;;;;;5060373;28;3643;-61
2022/12/18 05:53:05;;;;;;;;;;;;;;;;;;5062126;28;4844;-60
2022/12/18 05:55:35;;;;;;;;;;;;;;;;;;5053771;28;5197;-61
2022/12/18 05:58:00;;;;;;;;;;;;;;;;;;5058463;28;5069;-62
2022/12/18 06:00:25;;;;;;;;;;;;;;;;;;5064462;28;4637;-61
2022/12/18 06:02:50;;;;;;;;;;;;;;;;;;5058821;28;4488;-62
2022/12/18 06:05:16;;;;;;;;;;;;;;;;;;5055536;28;5469;-62
2022/12/18 06:07:41;;;;;;;;;;;;;;;;;;5061355;28;5045;-61
2022/12/18 06:10:06;;;;;;;;;;;;;;;;;;5056799;28;4870;-62
2022/12/18 06:12:33;;;;;;;;;;;;;;;;;;5060709;28;5158;-62
2022/12/18 06:14:58;;;;;;;;;;;;;;;;;;5060129;28;3477;-62
2022/12/18 06:17:27;;;;;;;;;;;;;;;;;;5057127;28;5015;-60
2022/12/18 06:19:52;;;;;;;;;;;;;;;;;;5054317;28;5471;-61
2022/12/18 06:22:17;;;;;;;;;;;;;;;;;;5052353;28;4988;-61
2022/12/18 06:24:42;;;;;;;;;;;;;;;;;;5055844;28;4888;-60
2022/12/18 06:27:08;;;;;;;;;;;;;;;;;;5059057;28;4155;-62
2022/12/18 06:29:33;;;;;;;;;;;;;;;;;;5059631;28;4872;-61
2022/12/18 06:31:58;;;;;;;;;;;;;;;;;;5053798;28;5204;-62
2022/12/18 06:34:23;;;;;;;;;;;;;;;;;;5055734;28;4958;-61
2022/12/18 06:36:49;;;;;;;;;;;;;;;;;;5053609;28;5054;-62
2022/12/18 06:39:14;;;;;;;;;;;;;;;;;;5058362;28;4953;-60
2022/12/18 06:41:39;;;;;;;;;;;;;;;;;;5051509;28;3564;-61
2022/12/18 06:44:05;;;;;;;;;;;;;;;;;;5060768;28;4647;-61
2022/12/18 06:46:32;;;;;;;;;;;;;;;;;;5053774;28;5057;-61
2022/12/18 06:48:57;;;;;;;;;;;;;;;;;;5054500;28;5194;-61
2022/12/18 06:51:22;;;;;;;;;;;;;;;;;;5059852;28;5720;-61
2022/12/18 06:53:48;;;;;;;;;;;;;;;;;;5048880;28;3602;-61
2022/12/18 06:56:13;;;;;;;;;;;;;;;;;;5056789;28;4941;-61
2022/12/18 06:58:38;;;;;;;;;;;;;;;;;;5058532;28;4462;-62
2022/12/18 07:01:04;;;;;;;;;;;;;;;;;;5057277;28;4712;-61
2022/12/18 07:03:30;;;;;;;;;;;;;;;;;;5054318;28;5108;-61
2022/12/18 07:05:55;;;;;;;;;;;;;;;;;;5060729;28;3556;-61
2022/12/18 07:08:20;;;;;;;;;;;;;;;;;;5054372;28;5134;-61
2022/12/18 07:10:46;;;;;;;;;;;;;;;;;;5057899;28;5314;-62
2022/12/18 07:13:11;;;;;;;;;;;;;;;;;;5053465;28;5154;-62
2022/12/18 07:15:36;;;;;;;;;;;;;;;;;;5060205;28;5186;-61
2022/12/18 07:18:01;;;;;;;;;;;;;;;;;;5065734;28;3510;-61
2022/12/18 07:20:27;;;;;;;;;;;;;;;;;;5063326;28;5127;-59
2022/12/18 07:22:52;;;;;;;;;;;;;;;;;;5056512;28;4764;-61
2022/12/18 07:25:17;;;;;;;;;;;;;;;;;;5059972;28;4871;-61
2022/12/18 07:27:42;;;;;;;;;;;;;;;;;;5060789;28;4507;-61
2022/12/18 07:30:08;;;;;;;;;;;;;;;;;;5064056;28;3663;-62
2022/12/18 07:32:34;;;;;;;;;;;;;;;;;;5061327;28;4932;-62
2022/12/18 07:34:59;;;;;;;;;;;;;;;;;;5062140;28;5088;-62
2022/12/18 07:37:24;;;;;;;;;;;;;;;;;;5062538;28;5091;-61
2022/12/18 07:39:50;;;;;;;;;;;;;;;;;;5053270;28;4526;-61
2022/12/18 07:42:30;;;;;;;;;;;;;;;;;;5058034;28;4538;-61
2022/12/18 07:44:56;;;;;;;;;;;;;;;;;;5056065;28;3501;-61
2022/12/18 07:47:21;;;;;;;;;;;;;;;;;;5061664;28;4570;-60
2022/12/18 07:49:46;;;;;;;;;;;;;;;;;;5051215;28;4726;-61
2022/12/18 07:52:12;;;;;;;;;;;;;;;;;;5059048;28;5175;-61
2022/12/18 07:54:37;;;;;;;;;;;;;;;;;;5062027;28;4740;-61
2022/12/18 07:57:02;;;;;;;;;;;;;;;;;;5063910;28;3382;-61
2022/12/18 07:59:28;;;;;;;;;;;;;;;;;;5057517;28;5037;-59
2022/12/18 08:01:53;;;;;;;;;;;;;;;;;;5061395;28;5034;-61
2022/12/18 08:04:18;;;;;;;;;;;;;;;;;;5060042;28;4971;-60
2022/12/18 08:06:44;;;;;;;;;;;;;;;;;;5057284;28;5290;-60
2022/12/18 08:09:09;;;;;;;;;;;;;;;;;;5065097;28;3473;-61
2022/12/18 08:11:34;;;;;;;;;;;;;;;;;;5063098;28;4783;-62
2022/12/18 08:13:59;;;;;;;;;;;;;;;;;;5055704;28;4709;-61
2022/12/18 08:16:25;;;;;;;;;;;;;;;;;;5057243;28;5146;-61
2022/12/18 08:18:51;;;;;;;;;;;;;;;;;;5054675;28;5107;-61
2022/12/18 08:21:23;;;;;;;;;;;;;;;;;;5059126;28;5101;-59
2022/12/18 08:23:49;;;;;;;;;;;;;;;;;;5060473;28;3521;-62
2022/12/18 08:26:14;;;;;;;;;;;;;;;;;;5056165;28;4679;-61
2022/12/18 08:28:40;;;;;;;;;;;;;;;;;;5060904;28;5107;-62
2022/12/18 08:31:05;;;;;;;;;;;;;;;;;;5056722;28;5101;-62
2022/12/18 08:33:30;;;;;;;;;;;;;;;;;;5062388;28;4815;-61
2022/12/18 08:35:55;;;;;;;;;;;;;;;;;;5059433;28;3449;-62
2022/12/18 08:38:21;;;;;;;;;;;;;;;;;;5060470;28;5003;-63
2022/12/18 08:40:46;;;;;;;;;;;;;;;;;;5052863;28;5066;-62
2022/12/18 08:45:55;;;;;;;;;;;;;;;;;;5053902;28;5175;-61
2022/12/18 08:48:20;;;;;;;;;;;;;;;;;;5060979;28;4772;-62
2022/12/18 08:50:55;;;;;;;;;;;;;;;;;;5062741;28;3603;-62
2022/12/18 08:53:20;;;;;;;;;;;;;;;;;;5060292;28;5030;-62
2022/12/18 08:55:46;;;;;;;;;;;;;;;;;;5062833;28;5129;-62
2022/12/18 08:58:11;;;;;;;;;;;;;;;;;;5049875;28;4442;-63
2022/12/18 09:00:36;;;;;;;;;;;;;;;;;;5066529;28;5052;-63
2022/12/18 09:03:01;;;;;;;;;;;;;;;;;;5069945;28;4293;-62
2022/12/18 09:05:27;;;;;;;;;;;;;;;;;;5050193;28;5143;-60
2022/12/18 09:07:52;;;;;;;;;;;;;;;;;;5060905;28;5076;-60
2022/12/18 09:10:17;;;;;;;;;;;;;;;;;;5071025;28;5055;-61
2022/12/18 09:12:42;;;;;;;;;;;;;;;;;;5075671;28;5096;-60
2022/12/18 09:15:08;;;;;;;;;;;;;;;;;;5071296;28;3455;-61
2022/12/18 09:17:33;;;;;;;;;;;;;;;;;;5073392;28;5038;-61
2022/12/18 09:19:58;;;;;;;;;;;;;;;;;;5067762;28;5019;-61
2022/12/18 09:22:23;;;;;;;;;;;;;;;;;;5074814;28;5130;-62
2022/12/18 09:24:49;;;;;;;;;;;;;;;;;;5071286;28;5218;-63
2022/12/18 09:27:14;;;;;;;;;;;;;;;;;;5075359;28;5024;-62
2022/12/18 09:29:39;;;;;;;;;;;;;;;;;;5079012;28;1112;-63
2022/12/18 09:32:04;;;;;;;;;;;;;;;;;;5071997;28;4638;-62
2022/12/18 09:34:30;;;;;;;;;;;;;;;;;;5064758;28;4848;-63
2022/12/18 09:36:55;;;;;;;;;;;;;;;;;;5072926;28;5021;-65
2022/12/18 09:39:20;;;;;;;;;;;;;;;;;;5067372;28;5123;-63
2022/12/18 09:41:55;;;;;;;;;;;;;;;;;;5066610;28;3372;-63
2022/12/18 09:44:28;;;;;;;;;;;;;;;;;;5056858;28;5193;-63
2022/12/18 09:46:54;;;;;;;;;;;;;;;;;;5057967;28;5033;-65
2022/12/18 09:49:21;;;;;;;;;;;;;;;;;;5070414;28;5114;-67
2022/12/18 09:51:48;;;;;;;;;;;;;;;;;;5049837;28;5138;-68
2022/12/18 09:54:18;;;;;;;;;;;;;;;;;;5063668;28;5237;-63
2022/12/18 09:56:43;;;;;;;;;;;;;;;;;;5057882;28;3551;-62
2022/12/18 09:59:23;;;;;;;;;;;;;;;;;;5065389;28;4485;-60
2022/12/18 10:01:48;;;;;;;;;;;;;;;;;;5051792;28;5055;-61
2022/12/18 10:04:13;;;;;;;;;;;;;;;;;;5051272;28;5240;-66
2022/12/18 10:06:47;;;;;;;;;;;;;;;;;;5062905;28;4947;-62
2022/12/18 10:09:27;;;;;;;;;;;;;;;;;;5060097;28;5169;-65
2022/12/18 10:12:11;;;;;;;;;;;;;;;;;;5052469;28;3401;-66
2022/12/18 10:14:41;;;;;;;;;;;;;;;;;;5055619;28;4546;-60
2022/12/18 10:17:06;;;;;;;;;;;;;;;;;;5061129;28;4478;-61
2022/12/18 10:19:31;;;;;;;;;;;;;;;;;;5058679;28;5090;-63
2022/12/18 10:22:15;;;;;;;;;;;;;;;;;;5059772;28;5439;-64
2022/12/18 10:24:46;;;;;;;;;;;;;;;;;;5060342;28;4697;-62
2022/12/18 10:27:13;;;;;;;;;;;;;;;;;;5062742;28;5139;-64
2022/12/18 10:29:39;;;;;;;;;;;;;;;;;;5061708;28;3362;-65
2022/12/18 10:32:04;;;;;;;;;;;;;;;;;;5035567;28;5472;-71
2022/12/18 10:34:29;;;;;;;;;;;;;;;;;;5055894;28;5326;-66
2022/12/18 10:36:54;;;;;;;;;;;;;;;;;;5047830;28;4514;-60
2022/12/18 10:39:22;;;;;;;;;;;;;;;;;;5054912;28;5090;-73
2022/12/18 10:41:50;;;;;;;;;;;;;;;;;;5060704;28;3382;-68
2022/12/18 10:44:22;;;;;;;;;;;;;;;;;;5055069;28;5101;-66
2022/12/18 10:46:50;;;;;;;;;;;;;;;;;;5053099;28;5117;-66
2022/12/18 10:49:23;;;;;;;;;;;;;;;;;;5052423;28;4672;-70
2022/12/18 10:51:48;;;;;;;;;;;;;;;;;;5053340;28;4490;-68
2022/12/18 10:54:13;;;;;;;;;;;;;;;;;;5054539;28;4527;-64
2022/12/18 10:56:39;;;;;;;;;;;;;;;;;;5064151;28;3569;-64
2022/12/18 10:59:05;;;;;;;;;;;;;;;;;;5065179;28;5750;-63
2022/12/18 11:01:48;;;;;;;;;;;;;;;;;;5062495;28;4739;-65
2022/12/18 11:04:26;;;;;;;;;;;;;;;;;;5065878;28;4741;-64
2022/12/18 11:07:02;;;;;;;;;;;;;;;;;;5064155;28;4537;-65
2022/12/18 11:09:28;;;;;;;;;;;;;;;;;;5056450;28;5081;-63
2022/12/18 11:11:58;;;;;;;;;;;;;;;;;;5059941;28;3512;-66
2022/12/18 11:14:25;;;;;;;;;;;;;;;;;;5063395;28;5004;-64
2022/12/18 11:16:50;;;;;;;;;;;;;;;;;;5057620;28;5150;-66
2022/12/18 11:19:19;;;;;;;;;;;;;;;;;;5064250;28;5204;-66
2022/12/18 11:21:44;;;;;;;;;;;;;;;;;;5061356;28;5020;-66
2022/12/18 11:24:19;;;;;;;;;;;;;;;;;;5060567;28;3372;-65
2022/12/18 11:26:45;;;;;;;;;;;;;;;;;;5062880;28;5034;-66
2022/12/18 11:29:12;;;;;;;;;;;;;;;;;;5056517;28;5080;-66
2022/12/18 11:31:38;;;;;;;;;;;;;;;;;;5062901;28;5044;-67
2022/12/18 11:34:03;;;;;;;;;;;;;;;;;;5064752;28;5157;-67
2022/12/18 11:36:29;;;;;;;;;;;;;;;;;;5062485;28;5349;-67
2022/12/18 11:38:54;;;;;;;;;;;;;;;;;;5048676;28;3718;-66
2022/12/18 11:42:08;;;;;;;;;;;;;;;;;;5062385;28;5191;-66
2022/12/18 11:44:29;;;;;;;;;;;;;;;;;;5054983;28;5078;-68
2022/12/18 11:47:13;;;;;;;;;;;;;;;;;;5056830;28;5198;-67
2022/12/18 11:49:39;;;;;;;;;;;;;;;;;;5063508;28;5197;-67
2022/12/18 11:52:13;;;;;;;;;;;;;;;;;;5062799;28;5014;-67
2022/12/18 11:54:38;;;;;;;;;;;;;;;;;;5058179;28;4944;-66
2022/12/18 11:57:10;;;;;;;;;;;;;;;;;;5051701;28;3876;-70
2022/12/18 11:59:38;;;;;;;;;;;;;;;;;;5060243;28;5040;-69
2022/12/18 12:02:03;;;;;;;;;;;;;;;;;;5058373;28;4652;-74
2022/12/18 12:04:35;;;;;;;;;;;;;;;;;;5057970;28;4843;-70
2022/12/18 12:07:09;;;;;;;;;;;;;;;;;;5059859;28;5104;-71
2022/12/18 12:09:40;;;;;;;;;;;;;;;;;;5062455;28;4971;-71
2022/12/18 12:12:11;;;;;;;;;;;;;;;;;;5061598;28;3534;-67
2022/12/18 12:14:39;;;;;;;;;;;;;;;;;;5060398;28;4910;-67
2022/12/18 12:17:04;;;;;;;;;;;;;;;;;;5058370;28;4998;-69
2022/12/18 12:19:48;;;;;;;;;;;;;;;;;;5062112;28;5103;-67
2022/12/18 12:22:32;;;;;;;;;;;;;;;;;;5054276;28;5112;-67
2022/12/18 12:24:57;;;;;;;;;;;;;;;;;;5063646;28;5104;-64
2022/12/18 12:27:26;;;;;;;;;;;;;;;;;;5057780;28;5307;-65
2022/12/18 12:29:52;;;;;;;;;;;;;;;;;;5058733;28;1474;-66
2022/12/18 12:32:39;;;;;;;;;;;;;;;;;;5058497;28;4979;-66
2022/12/18 12:35:16;;;;;;;;;;;;;;;;;;5057664;28;5085;-67
2022/12/18 12:38:07;;;;;;;;;;;;;;;;;;5049423;28;5072;-64
2022/12/18 12:40:34;;;;;;;;;;;;;;;;;;5033457;28;5069;-65
2022/12/18 12:43:13;;;;;;;;;;;;;;;;;;5060552;28;4491;-64
2022/12/18 12:45:38;;;;;;;;;;;;;;;;;;5057378;28;5043;-63
2022/12/18 12:48:04;;;;;;;;;;;;;;;;;;5064847;28;3659;-65
2022/12/18 12:50:29;;;;;;;;;;;;;;;;;;5056361;28;4843;-67
2022/12/18 12:52:55;;;;;;;;;;;;;;;;;;5037488;28;4709;-66
2022/12/18 12:55:21;;;;;;;;;;;;;;;;;;5056591;28;5279;-65
2022/12/18 12:58:06;;;;;;;;;;;;;;;;;;5049120;28;4691;-65
2022/12/18 13:00:37;;;;;;;;;;;;;;;;;;5059349;28;4820;-67
2022/12/18 13:03:12;;;;;;;;;;;;;;;;;;5052501;28;4497;-66
2022/12/18 13:05:42;;;;;;;;;;;;;;;;;;5060424;28;4925;-66
2022/12/18 13:08:08;;;;;;;;;;;;;;;;;;5061167;28;5034;-65
2022/12/18 13:10:35;;;;;;;;;;;;;;;;;;5054369;28;5098;-65
2022/12/18 13:13:03;;;;;;;;;;;;;;;;;;5066718;28;5081;-66
2022/12/18 13:15:31;;;;;;;;;;;;;;;;;;5067384;28;5011;-64
2022/12/18 13:18:22;;;;;;;;;;;;;;;;;;5066789;28;1163;-65
2022/12/18 13:21:01;;;;;;;;;;;;;;;;;;5061325;28;4560;-64
2022/12/18 13:23:27;;;;;;;;;;;;;;;;;;5063337;28;5076;-65
2022/12/18 13:26:10;;;;;;;;;;;;;;;;;;5060433;28;4989;-65
2022/12/18 13:28:42;;;;;;;;;;;;;;;;;;5063322;28;4614;-66
2022/12/18 13:31:07;;;;;;;;;;;;;;;;;;5063287;28;5113;-62
2022/12/18 13:33:44;;;;;;;;;;;;;;;;;;5063438;28;5166;-63
2022/12/18 13:36:22;;;;;;;;;;;;;;;;;;5063881;28;3474;-64
2022/12/18 13:38:47;;;;;;;;;;;;;;;;;;5065069;28;5132;-65
2022/12/18 13:41:18;;;;;;;;;;;;;;;;;;5048001;28;4620;-65
2022/12/18 13:43:45;;;;;;;;;;;;;;;;;;5060237;28;4502;-64
2022/12/18 13:46:29;;;;;;;;;;;;;;;;;;5060062;28;5022;-65
2022/12/18 13:49:01;;;;;;;;;;;;;;;;;;5060781;28;5138;-65
2022/12/18 13:51:27;;;;;;;;;;;;;;;;;;5059970;28;4772;-65
2022/12/18 13:53:55;;;;;;;;;;;;;;;;;;5064961;28;3321;-68
2022/12/18 13:56:21;;;;;;;;;;;;;;;;;;5059233;28;4589;-66
2022/12/18 13:59:02;;;;;;;;;;;;;;;;;;5062016;28;4969;-66
2022/12/18 14:01:28;;;;;;;;;;;;;;;;;;5053498;28;5048;-66
2022/12/18 14:04:08;;;;;;;;;;;;;;;;;;5058247;28;5097;-66
2022/12/18 14:06:33;;;;;;;;;;;;;;;;;;5060097;28;4569;-66
2022/12/18 14:08:58;;;;;;;;;;;;;;;;;;5061075;28;3338;-65
2022/12/18 14:11:24;;;;;;;;;;;;;;;;;;5055518;28;4610;-63
2022/12/18 14:13:49;;;;;;;;;;;;;;;;;;5045807;28;5384;-64
2022/12/18 14:16:15;;;;;;;;;;;;;;;;;;5061969;28;5138;-65
2022/12/18 14:18:44;;;;;;;;;;;;;;;;;;5054906;28;5711;-66
2022/12/18 14:21:23;;;;;;;;;;;;;;;;;;5058959;28;3347;-66
2022/12/18 14:23:48;;;;;;;;;;;;;;;;;;5062915;28;5271;-66
2022/12/18 14:26:21;;;;;;;;;;;;;;;;;;5061973;28;5126;-66
2022/12/18 14:28:46;;;;;;;;;;;;;;;;;;5062508;28;4723;-65
2022/12/18 14:31:19;;;;;;;;;;;;;;;;;;5063641;28;4935;-67
2022/12/18 14:33:44;;;;;;;;;;;;;;;;;;5067493;28;4970;-66
2022/12/18 14:36:15;;;;;;;;;;;;;;;;;;5056560;28;3845;-68
2022/12/18 14:38:41;;;;;;;;;;;;;;;;;;5057970;28;4949;-66
2022/12/18 14:41:09;;;;;;;;;;;;;;;;;;5059664;28;5078;-65
2022/12/18 14:43:35;;;;;;;;;;;;;;;;;;5056609;28;5214;-65
2022/12/18 14:46:00;;;;;;;;;;;;;;;;;;5054628;28;4496;-60
2022/12/18 14:48:46;;;;;;;;;;;;;;;;;;5065387;28;5026;-59
2022/12/18 14:51:21;;;;;;;;;;;;;;;;;;5060347;28;5191;-61
2022/12/18 14:53:55;;;;;;;;;;;;;;;;;;5064237;28;3443;-61
2022/12/18 14:56:24;;;;;;;;;;;;;;;;;;5061332;28;5098;-62
2022/12/18 14:58:59;;;;;;;;;;;;;;;;;;5065233;28;4947;-61
2022/12/18 15:01:25;;;;;;;;;;;;;;;;;;5059787;28;4639;-61
2022/12/18 15:03:51;;;;;;;;;;;;;;;;;;5065516;28;5157;-60
2022/12/18 15:06:35;;;;;;;;;;;;;;;;;;5064955;28;5137;-61
2022/12/18 15:09:05;;;;;;;;;;;;;;;;;;5066739;28;3458;-62
2022/12/18 15:11:35;;;;;;;;;;;;;;;;;;5045146;28;4974;-61
2022/12/18 15:14:20;;;;;;;;;;;;;;;;;;5064778;28;4630;-62
2022/12/18 15:16:49;;;;;;;;;;;;;;;;;;5064491;28;5492;-61
2022/12/18 15:19:15;;;;;;;;;;;;;;;;;;5064429;28;4621;-62
2022/12/18 15:21:42;;;;;;;;;;;;;;;;;;5062788;28;4507;-61
2022/12/18 15:24:13;;;;;;;;;;;;;;;;;;5048872;28;3282;-60
2022/12/18 15:26:38;;;;;;;;;;;;;;;;;;5064755;28;4597;-59
2022/12/18 15:29:04;;;;;;;;;;;;;;;;;;5063773;28;5091;-62
2022/12/18 15:31:30;;;;;;;;;;;;;;;;;;5065131;28;4930;-61
2022/12/18 15:33:55;;;;;;;;;;;;;;;;;;5061284;28;4930;-62
2022/12/18 15:36:22;;;;;;;;;;;;;;;;;;5065840;28;5023;-61
2022/12/18 15:38:47;;;;;;;;;;;;;;;;;;5060004;28;3650;-62
2022/12/18 15:41:13;;;;;;;;;;;;;;;;;;5061177;28;5375;-61
2022/12/18 15:43:38;;;;;;;;;;;;;;;;;;5056493;28;4999;-62
2022/12/18 15:46:04;;;;;;;;;;;;;;;;;;5062826;28;4577;-60
2022/12/18 15:48:31;;;;;;;;;;;;;;;;;;5058041;28;5009;-63
2022/12/18 15:50:56;;;;;;;;;;;;;;;;;;5055510;28;3583;-61
2022/12/18 15:53:22;;;;;;;;;;;;;;;;;;5054949;28;4533;-61
2022/12/18 15:58:30;;;;;;;;;;;;;;;;;;5059176;28;5135;-62
2022/12/18 16:00:56;;;;;;;;;;;;;;;;;;5055254;28;4532;-64
2022/12/18 16:03:21;;;;;;;;;;;;;;;;;;5040583;28;5061;-63
2022/12/18 16:05:47;;;;;;;;;;;;;;;;;;5057757;28;3541;-61
2022/12/18 16:08:12;;;;;;;;;;;;;;;;;;5055201;28;5149;-60
2022/12/18 16:10:37;;;;;;;;;;;;;;;;;;5058230;28;5089;-59
2022/12/18 16:13:02;;;;;;;;;;;;;;;;;;5058989;28;5073;-59
2022/12/18 16:15:28;;;;;;;;;;;;;;;;;;5053903;28;5098;-63
2022/12/18 16:17:53;;;;;;;;;;;;;;;;;;5053772;28;3484;-63
2022/12/18 16:20:20;;;;;;;;;;;;;;;;;;5061942;28;4976;-64
2022/12/18 16:22:46;;;;;;;;;;;;;;;;;;5060456;28;5154;-62
2022/12/18 16:25:21;;;;;;;;;;;;;;;;;;5047089;28;5555;-64
2022/12/18 16:27:46;;;;;;;;;;;;;;;;;;5055506;28;4936;-64
2022/12/18 16:30:15;;;;;;;;;;;;;;;;;;5051170;28;4932;-64
2022/12/18 16:32:40;;;;;;;;;;;;;;;;;;5052741;28;3481;-61
2022/12/18 16:35:06;;;;;;;;;;;;;;;;;;5048900;28;4771;-60
2022/12/18 16:37:31;;;;;;;;;;;;;;;;;;5058961;28;5079;-62
2022/12/18 16:39:56;;;;;;;;;;;;;;;;;;5051529;28;5338;-61
2022/12/18 16:42:22;;;;;;;;;;;;;;;;;;5053477;28;4540;-60
2022/12/18 16:44:47;;;;;;;;;;;;;;;;;;5053102;28;3673;-63
2022/12/18 16:47:13;;;;;;;;;;;;;;;;;;5046078;28;5038;-61
2022/12/18 16:49:38;;;;;;;;;;;;;;;;;;5054164;28;5223;-62
2022/12/18 16:52:04;;;;;;;;;;;;;;;;;;5058136;28;5125;-61
2022/12/18 16:54:29;;;;;;;;;;;;;;;;;;5054956;28;4496;-60
2022/12/18 16:56:54;;;;;;;;;;;;;;;;;;5056021;28;3379;-58
2022/12/18 16:59:20;;;;;;;;;;;;;;;;;;5058736;28;5078;-56
2022/12/18 17:01:45;;;;;;;;;;;;;;;;;;5052579;28;5091;-57
2022/12/18 17:04:10;;;;;;;;;;;;;;;;;;5053342;28;4674;-58
2022/12/18 17:06:38;;;;;;;;;;;;;;;;;;5058872;28;4929;-57
2022/12/18 17:09:05;;;;;;;;;;;;;;;;;;5054927;28;3500;-57
2022/12/18 17:11:31;;;;;;;;;;;;;;;;;;5050598;28;4986;-58
2022/12/18 17:13:56;;;;;;;;;;;;;;;;;;5056440;28;4603;-59